createdAt,value
2022-11-12T00:00:59.559Z,9.65
2022-11-12T00:03:26.944Z,9.52
2022-11-12T00:05:53.916Z,9.00
2022-11-12T00:08:20.780Z,8.77
2022-11-12T00:10:47.718Z,12.80
2022-11-12T00:13:14.896Z,9.20
2022-11-12T00:15:42.474Z,8.95
2022-11-12T00:18:09.579Z,9.15
2022-11-12T00:20:36.390Z,9.27
2022-11-12T00:23:03.573Z,12.23
2022-11-12T00:25:30.349Z,9.20
2022-11-12T00:28:06.140Z,9.85
2022-11-12T00:30:33.094Z,9.82
2022-11-12T00:33:04.576Z,9.35
2022-11-12T00:35:32.964Z,10.23
2022-11-12T00:38:00.631Z,9.45
2022-11-12T00:40:27.734Z,11.52
2022-11-12T00:42:54.552Z,9.70
2022-11-12T00:45:21.881Z,9.90
2022-11-12T00:47:48.580Z,10.73
2022-11-12T00:50:16.277Z,10.60
2022-11-12T00:52:43.555Z,13.00
2022-11-12T00:55:10.728Z,11.40
2022-11-12T00:57:37.435Z,11.52
2022-11-12T01:00:06.341Z,11.77
2022-11-12T01:02:38.615Z,10.45
2022-11-12T01:05:09.232Z,10.75
2022-11-12T01:07:35.958Z,9.80
2022-11-12T01:10:02.678Z,9.68
2022-11-12T01:12:31.481Z,9.88
2022-11-12T01:14:58.237Z,9.02
2022-11-12T01:17:24.913Z,9.15
2022-11-12T01:19:51.616Z,9.48
2022-11-12T01:22:18.363Z,9.20
2022-11-12T01:24:45.121Z,8.63
2022-11-12T01:27:11.829Z,8.63
2022-11-12T01:29:38.522Z,8.85
2022-11-12T01:32:05.647Z,9.90
2022-11-12T01:34:32.443Z,10.10
2022-11-12T01:36:59.218Z,11.75
2022-11-12T01:39:25.965Z,9.95
2022-11-12T01:41:52.654Z,10.20
2022-11-12T01:44:21.456Z,9.65
2022-11-12T01:46:58.777Z,9.60
2022-11-12T01:49:35.652Z,9.45
2022-11-12T01:52:13.000Z,9.45
2022-11-12T01:54:41.048Z,8.55
2022-11-12T01:57:10.056Z,9.00
2022-11-12T01:59:44.093Z,8.27
2022-11-12T02:02:11.528Z,8.68
2022-11-12T02:04:40.126Z,8.98
2022-11-12T02:07:08.275Z,10.32
2022-11-12T02:09:36.330Z,9.55
2022-11-12T02:12:03.611Z,9.07
2022-11-12T02:14:31.712Z,8.82
2022-11-12T02:16:58.823Z,8.98
2022-11-12T02:19:26.615Z,8.52
2022-11-12T02:21:53.262Z,8.38
2022-11-12T02:24:19.903Z,8.50
2022-11-12T02:26:49.393Z,8.45
2022-11-12T02:29:16.043Z,9.73
2022-11-12T02:31:42.838Z,8.65
2022-11-12T02:34:09.589Z,8.68
2022-11-12T02:36:36.251Z,9.23
2022-11-12T02:39:04.153Z,9.18
2022-11-12T02:41:30.842Z,8.30
2022-11-12T02:43:57.551Z,8.38
2022-11-12T02:46:24.479Z,8.75
2022-11-12T02:48:51.134Z,8.13
2022-11-12T02:51:17.790Z,8.25
2022-11-12T02:53:44.432Z,7.82
2022-11-12T02:56:11.131Z,8.50
2022-11-12T02:58:37.799Z,8.07
2022-11-12T03:01:04.789Z,8.68
2022-11-12T03:03:31.478Z,8.95
2022-11-12T03:06:01.042Z,8.32
2022-11-12T03:08:28.639Z,8.00
2022-11-12T03:10:55.590Z,8.52
2022-11-12T03:13:22.326Z,8.25
2022-11-12T03:15:49.047Z,8.02
2022-11-12T03:18:16.266Z,8.48
2022-11-12T03:20:42.960Z,8.00
2022-11-12T03:23:11.432Z,8.95
2022-11-12T03:25:38.499Z,8.77
2022-11-12T03:28:14.194Z,8.40
2022-11-12T03:30:42.825Z,7.97
2022-11-12T03:33:12.169Z,7.75
2022-11-12T03:35:39.632Z,7.70
2022-11-12T03:38:06.923Z,8.15
2022-11-12T03:40:34.577Z,8.65
2022-11-12T03:43:01.278Z,8.88
2022-11-12T03:45:28.578Z,8.80
2022-11-12T03:47:57.114Z,9.13
2022-11-12T03:50:27.186Z,8.35
2022-11-12T03:52:57.599Z,9.20
2022-11-12T03:55:26.683Z,9.75
2022-11-12T03:57:54.638Z,9.30
2022-11-12T04:00:23.509Z,9.60
2022-11-12T04:02:51.022Z,9.43
2022-11-12T04:05:36.751Z,7.97
2022-11-12T04:08:23.888Z,9.73
2022-11-12T04:10:51.208Z,8.68
2022-11-12T04:13:29.978Z,9.00
2022-11-12T04:16:28.345Z,7.97
2022-11-12T04:19:15.185Z,8.32
2022-11-12T04:21:52.123Z,8.48
2022-11-12T04:24:41.662Z,7.60
2022-11-12T04:27:13.929Z,7.45
2022-11-12T04:29:59.591Z,7.25
2022-11-12T04:32:26.672Z,7.10
2022-11-12T04:34:54.149Z,7.40
2022-11-12T04:37:23.662Z,8.07
2022-11-12T04:39:51.672Z,7.90
2022-11-12T04:42:37.480Z,7.50
2022-11-12T04:45:10.924Z,8.73
2022-11-12T04:47:40.301Z,8.52
2022-11-12T04:50:15.883Z,7.32
2022-11-12T04:52:42.601Z,7.75
2022-11-12T04:55:10.005Z,7.80
2022-11-12T04:57:38.183Z,7.68
2022-11-12T05:00:06.054Z,6.28
2022-11-12T05:02:32.708Z,6.38
2022-11-12T05:04:59.487Z,6.47
2022-11-12T05:07:26.293Z,6.70
2022-11-12T05:09:52.959Z,6.57
2022-11-12T05:12:19.650Z,6.80
2022-11-12T05:14:46.348Z,6.55
2022-11-12T05:17:13.049Z,6.60
2022-11-12T05:19:39.709Z,6.15
2022-11-12T05:22:06.511Z,5.65
2022-11-12T05:24:42.501Z,6.65
2022-11-12T05:27:18.086Z,6.80
2022-11-12T05:29:45.138Z,7.22
2022-11-12T05:32:14.566Z,7.03
2022-11-12T05:34:41.584Z,7.20
2022-11-12T05:37:10.296Z,7.05
2022-11-12T05:39:37.372Z,7.63
2022-11-12T05:42:13.747Z,7.68
2022-11-12T05:44:41.353Z,8.32
2022-11-12T05:47:08.057Z,9.73
2022-11-12T05:49:34.781Z,9.85
2022-11-12T05:52:01.430Z,8.63
2022-11-12T05:54:28.215Z,9.93
2022-11-12T05:56:54.890Z,8.80
2022-11-12T05:59:22.367Z,9.43
2022-11-12T06:01:49.232Z,8.98
2022-11-12T06:04:16.629Z,9.25
2022-11-12T06:06:44.386Z,9.52
2022-11-12T06:09:11.649Z,10.40
2022-11-12T06:11:39.839Z,10.50
2022-11-12T06:14:06.585Z,10.85
2022-11-12T06:16:33.462Z,10.68
2022-11-12T06:19:00.441Z,10.52
2022-11-12T06:21:27.863Z,11.32
2022-11-12T06:23:59.869Z,10.45
2022-11-12T06:26:29.838Z,10.80
2022-11-12T06:28:57.164Z,13.90
2022-11-12T06:31:24.239Z,9.82
2022-11-12T06:33:51.537Z,10.13
2022-11-12T06:36:20.019Z,9.82
2022-11-12T06:38:48.224Z,10.18
2022-11-12T06:41:15.217Z,8.73
2022-11-12T06:43:42.449Z,9.38
2022-11-12T06:46:15.093Z,9.63
2022-11-12T06:48:42.116Z,11.05
2022-11-12T06:51:12.398Z,11.95
2022-11-12T06:53:39.145Z,11.15
2022-11-12T06:56:07.081Z,12.75
2022-11-12T06:58:34.718Z,12.27
2022-11-12T07:01:13.495Z,12.55
2022-11-12T07:03:41.922Z,11.23
2022-11-12T07:06:14.922Z,12.63
2022-11-12T07:08:42.132Z,12.27
2022-11-12T07:11:09.476Z,13.05
2022-11-12T07:13:36.609Z,11.07
2022-11-12T07:16:05.839Z,15.45
2022-11-12T07:18:34.052Z,11.65
2022-11-12T07:21:02.297Z,12.38
2022-11-12T07:23:31.392Z,11.13
2022-11-12T07:26:22.943Z,11.23
2022-11-12T07:28:51.433Z,10.48
2022-11-12T07:31:20.010Z,11.20
2022-11-12T07:33:49.095Z,14.02
2022-11-12T07:36:18.244Z,16.85
2022-11-12T07:38:45.483Z,10.10
2022-11-12T07:41:14.984Z,9.27
2022-11-12T07:43:43.479Z,9.65
2022-11-12T07:46:19.502Z,10.90
2022-11-12T07:48:46.893Z,11.80
2022-11-12T07:51:25.555Z,11.30
2022-11-12T07:53:58.948Z,11.30
2022-11-12T07:56:27.819Z,11.40
2022-11-12T07:58:54.704Z,10.77
2022-11-12T08:01:30.932Z,11.73
2022-11-12T08:03:59.306Z,11.48
2022-11-12T08:06:26.878Z,11.30
2022-11-12T08:08:54.893Z,10.32
2022-11-12T08:11:22.155Z,10.30
2022-11-12T08:13:49.383Z,9.82
2022-11-12T08:16:16.132Z,10.80
2022-11-12T08:18:43.434Z,10.15
2022-11-12T08:21:13.387Z,9.63
2022-11-12T08:23:40.439Z,10.35
2022-11-12T08:26:10.749Z,9.65
2022-11-12T08:28:38.241Z,11.10
2022-11-12T08:31:11.006Z,11.02
2022-11-12T08:33:38.123Z,11.10
2022-11-12T08:36:06.767Z,11.35
2022-11-12T08:38:33.740Z,10.55
2022-11-12T08:41:05.536Z,11.60
2022-11-12T08:43:32.419Z,10.52
2022-11-12T08:46:00.429Z,11.60
2022-11-12T08:48:28.834Z,10.25
2022-11-12T08:50:56.301Z,10.25
2022-11-12T08:53:24.860Z,10.35
2022-11-12T08:55:56.297Z,10.98
2022-11-12T08:58:24.587Z,13.45
2022-11-12T09:00:52.486Z,14.93
2022-11-12T09:03:25.404Z,14.60
2022-11-12T09:05:52.976Z,12.25
2022-11-12T09:08:22.610Z,10.43
2022-11-12T09:10:50.219Z,10.60
2022-11-12T09:13:18.318Z,10.50
2022-11-12T09:15:46.073Z,9.63
2022-11-12T09:18:18.547Z,9.80
2022-11-12T09:20:46.276Z,11.65
2022-11-12T09:23:15.057Z,11.60
2022-11-12T09:25:42.579Z,10.65
2022-11-12T09:28:19.230Z,11.82
2022-11-12T09:30:48.832Z,12.00
2022-11-12T09:33:33.143Z,11.23
2022-11-12T09:36:04.163Z,10.70
2022-11-12T09:38:31.517Z,12.77
2022-11-12T09:40:58.226Z,11.55
2022-11-12T09:43:31.857Z,9.35
2022-11-12T09:46:32.319Z,9.20
2022-11-12T09:49:07.724Z,8.43
2022-11-12T09:51:39.182Z,9.00
2022-11-12T09:54:25.450Z,8.93
2022-11-12T09:56:53.793Z,8.98
2022-11-12T09:59:22.176Z,10.70
2022-11-12T10:02:26.338Z,11.02
2022-11-12T10:04:59.165Z,10.60
2022-11-12T10:07:25.802Z,11.35
2022-11-12T10:10:05.694Z,10.80
2022-11-12T10:12:46.768Z,10.02
2022-11-12T10:15:56.114Z,10.70
2022-11-12T10:18:47.595Z,11.82
2022-11-12T10:21:22.187Z,10.07
2022-11-12T10:23:52.940Z,10.82
2022-11-12T10:26:22.073Z,12.85
2022-11-12T10:29:11.595Z,11.93
2022-11-12T10:31:38.974Z,12.07
2022-11-12T10:34:18.625Z,10.80
2022-11-12T10:37:05.679Z,11.15
2022-11-12T10:39:41.322Z,11.32
2022-11-12T10:42:14.145Z,11.10
2022-11-12T10:44:43.224Z,11.30
2022-11-12T10:47:24.817Z,11.35
2022-11-12T10:50:06.122Z,10.68
2022-11-12T10:52:32.873Z,10.27
2022-11-12T10:55:33.154Z,11.00
2022-11-12T10:58:12.097Z,10.82
2022-11-12T11:00:56.651Z,10.75
2022-11-12T11:03:29.818Z,10.95
2022-11-12T11:06:00.872Z,11.43
2022-11-12T11:08:47.295Z,12.98
2022-11-12T11:11:16.968Z,11.10
2022-11-12T11:13:45.013Z,12.50
2022-11-12T11:16:21.049Z,11.38
2022-11-12T11:18:58.049Z,11.10
2022-11-12T11:21:30.720Z,11.73
2022-11-12T11:24:07.339Z,11.02
2022-11-12T11:26:58.133Z,11.20
2022-11-12T11:29:46.771Z,10.23
2022-11-12T11:32:52.575Z,11.20
2022-11-12T11:35:22.351Z,12.60
2022-11-12T11:38:16.833Z,11.32
2022-11-12T11:41:00.205Z,12.38
2022-11-12T11:43:36.441Z,13.45
2022-11-12T11:46:29.436Z,13.77
2022-11-12T11:49:11.177Z,13.82
2022-11-12T11:51:58.570Z,13.27
2022-11-12T11:54:34.389Z,14.00
2022-11-12T11:57:09.592Z,12.88
2022-11-12T11:59:36.536Z,13.70
2022-11-12T12:02:48.670Z,13.63
2022-11-12T12:05:43.185Z,13.10
2022-11-12T12:08:45.118Z,13.35
2022-11-12T12:11:35.273Z,13.27
2022-11-12T12:14:20.605Z,12.95
2022-11-12T12:17:31.869Z,12.68
2022-11-12T12:20:05.536Z,12.82
2022-11-12T12:22:45.063Z,13.52
2022-11-12T12:25:17.125Z,12.23
2022-11-12T12:27:59.828Z,12.35
2022-11-12T12:30:29.437Z,11.70
2022-11-12T12:33:02.620Z,11.70
2022-11-12T12:35:44.560Z,13.80
2022-11-12T12:38:16.035Z,13.02
2022-11-12T12:41:01.885Z,12.48
2022-11-12T12:43:52.632Z,12.75
2022-11-12T12:46:25.466Z,11.95
2022-11-12T12:48:55.029Z,12.00
2022-11-12T12:51:22.451Z,13.25
2022-11-12T12:53:49.174Z,15.45
2022-11-12T12:56:15.849Z,13.57
2022-11-12T12:58:50.597Z,12.52
2022-11-12T13:01:20.838Z,13.70
2022-11-12T13:04:03.323Z,12.68
2022-11-12T13:06:35.790Z,11.60
2022-11-12T13:09:14.965Z,13.57
2022-11-12T13:12:01.903Z,12.52
2022-11-12T13:14:31.333Z,12.30
2022-11-12T13:17:00.050Z,11.98
2022-11-12T13:19:33.211Z,12.48
2022-11-12T13:22:18.360Z,11.50
2022-11-12T13:25:03.267Z,12.82
2022-11-12T13:27:48.076Z,13.80
2022-11-12T13:32:47.730Z,11.75
2022-11-12T13:35:26.235Z,10.73
2022-11-12T13:37:58.737Z,11.85
2022-11-12T13:40:32.350Z,12.00
2022-11-12T13:43:06.283Z,12.57
2022-11-12T13:45:39.848Z,11.95
2022-11-12T13:48:08.666Z,12.48
2022-11-12T13:50:40.374Z,12.10
2022-11-12T13:53:10.873Z,11.90
2022-11-12T13:55:47.226Z,12.85
2022-11-12T13:58:27.163Z,12.25
2022-11-12T14:00:56.977Z,11.93
2022-11-12T14:03:27.139Z,13.40
2022-11-12T14:05:54.667Z,11.90
2022-11-12T14:08:55.870Z,12.10
2022-11-12T14:11:33.573Z,13.75
2022-11-12T14:14:03.131Z,12.90
2022-11-12T14:16:50.101Z,12.60
2022-11-12T14:19:19.510Z,11.95
2022-11-12T14:22:08.402Z,11.52
2022-11-12T14:24:35.222Z,11.35
2022-11-12T14:27:01.924Z,12.18
2022-11-12T14:29:34.119Z,11.07
2022-11-12T14:32:03.411Z,13.70
2022-11-12T14:34:33.051Z,12.77
2022-11-12T14:37:00.888Z,12.60
2022-11-12T14:39:29.441Z,12.55
2022-11-12T14:41:58.602Z,13.20
2022-11-12T14:44:34.601Z,13.00
2022-11-12T14:47:02.220Z,12.73
2022-11-12T14:49:45.136Z,12.70
2022-11-12T14:52:15.811Z,12.30
2022-11-12T14:54:50.414Z,12.70
2022-11-12T14:57:29.842Z,12.60
2022-11-12T14:59:57.693Z,12.68
2022-11-12T15:02:41.645Z,13.30
2022-11-12T15:05:18.584Z,13.07
2022-11-12T15:07:58.655Z,13.10
2022-11-12T15:10:29.767Z,12.38
2022-11-12T15:13:03.696Z,11.75
2022-11-12T15:15:32.551Z,11.88
2022-11-12T15:18:01.953Z,12.10
2022-11-12T15:20:28.937Z,12.77
2022-11-12T15:22:56.030Z,11.82
2022-11-12T15:25:27.256Z,11.95
2022-11-12T15:27:54.073Z,12.32
2022-11-12T15:30:31.798Z,12.70
2022-11-12T15:33:11.492Z,12.05
2022-11-12T15:35:44.129Z,12.57
2022-11-12T15:38:26.089Z,12.98
2022-11-12T15:40:57.457Z,12.50
2022-11-12T15:43:30.291Z,12.35
2022-11-12T15:45:57.254Z,11.98
2022-11-12T15:48:24.523Z,12.57
2022-11-12T15:50:51.505Z,12.75
2022-11-12T15:53:18.623Z,12.40
2022-11-12T15:55:47.338Z,13.68
2022-11-12T15:58:27.308Z,13.20
2022-11-12T16:00:54.113Z,13.80
2022-11-12T16:03:22.346Z,12.95
2022-11-12T16:05:48.991Z,12.82
2022-11-12T16:08:16.081Z,13.25
2022-11-12T16:10:44.913Z,14.70
2022-11-12T16:13:34.815Z,13.32
2022-11-12T16:16:05.042Z,13.25
2022-11-12T16:18:31.700Z,13.15
2022-11-12T16:20:58.358Z,14.85
2022-11-12T16:23:25.472Z,13.95
2022-11-12T16:25:52.411Z,13.85
2022-11-12T16:28:19.371Z,13.77
2022-11-12T16:30:47.613Z,14.70
2022-11-12T16:33:14.473Z,12.88
2022-11-12T16:35:41.351Z,15.00
2022-11-12T16:38:17.518Z,14.02
2022-11-12T16:40:45.563Z,15.10
2022-11-12T16:43:12.409Z,15.35
2022-11-12T16:45:41.151Z,15.35
2022-11-12T16:48:19.741Z,13.73
2022-11-12T16:50:47.546Z,14.55
2022-11-12T16:53:14.218Z,13.57
2022-11-12T16:55:41.050Z,14.98
2022-11-12T16:58:11.745Z,13.52
2022-11-12T17:00:38.957Z,14.35
2022-11-12T17:03:05.657Z,14.15
2022-11-12T17:05:32.398Z,13.70
2022-11-12T17:07:59.466Z,14.20
2022-11-12T17:10:26.215Z,13.68
2022-11-12T17:12:53.291Z,13.70
2022-11-12T17:15:20.528Z,13.15
2022-11-12T17:17:47.194Z,14.00
2022-11-12T17:20:14.237Z,12.23
2022-11-12T17:22:40.922Z,12.85
2022-11-12T17:25:08.365Z,13.90
2022-11-12T17:27:35.148Z,12.23
2022-11-12T17:30:02.762Z,11.68
2022-11-12T17:32:29.506Z,12.13
2022-11-12T17:34:56.875Z,12.43
2022-11-12T17:37:23.653Z,12.60
2022-11-12T17:39:50.377Z,14.88
2022-11-12T17:42:17.042Z,15.38
2022-11-12T17:44:46.106Z,15.00
2022-11-12T17:47:12.799Z,16.30
2022-11-12T17:49:39.463Z,13.75
2022-11-12T17:52:06.262Z,15.50
2022-11-12T17:54:32.929Z,14.25
2022-11-12T17:57:00.205Z,14.20
2022-11-12T17:59:26.906Z,14.70
2022-11-12T18:01:53.569Z,15.27
2022-11-12T18:04:23.501Z,16.35
2022-11-12T18:06:50.598Z,15.60
2022-11-12T18:09:17.346Z,15.07
2022-11-12T18:11:50.015Z,15.20
2022-11-12T18:14:17.020Z,18.60
2022-11-12T18:16:44.168Z,16.95
2022-11-12T18:19:11.276Z,15.98
2022-11-12T18:21:41.529Z,17.73
2022-11-12T18:24:13.785Z,16.88
2022-11-12T18:26:40.549Z,16.30
2022-11-12T18:29:07.569Z,16.08
2022-11-12T18:31:34.659Z,16.00
2022-11-12T18:34:01.501Z,15.65
2022-11-12T18:36:29.060Z,17.15
2022-11-12T18:38:56.161Z,17.08
2022-11-12T18:41:30.072Z,17.48
2022-11-12T18:43:57.159Z,20.70
2022-11-12T18:46:23.878Z,21.65
2022-11-12T18:48:51.057Z,18.92
2022-11-12T18:51:19.272Z,18.75
2022-11-12T18:53:46.344Z,17.98
2022-11-12T18:56:20.826Z,18.50
2022-11-12T19:01:22.843Z,18.05
2022-11-12T19:03:54.370Z,20.75
2022-11-12T19:06:21.988Z,18.60
2022-11-12T19:08:48.925Z,19.42
2022-11-12T19:11:18.670Z,16.73
2022-11-12T19:13:45.626Z,17.02
2022-11-12T19:16:17.175Z,17.15
2022-11-12T19:18:45.261Z,15.63
2022-11-12T19:21:23.934Z,15.57
2022-11-12T19:23:54.607Z,16.33
2022-11-12T19:26:23.098Z,14.93
2022-11-12T19:28:49.933Z,15.38
2022-11-12T19:31:22.907Z,16.48
2022-11-12T19:33:50.187Z,14.80
2022-11-12T19:36:20.650Z,15.85
2022-11-12T19:38:47.634Z,13.00
2022-11-12T19:41:19.826Z,11.45
2022-11-12T19:43:47.529Z,12.02
2022-11-12T19:46:14.917Z,11.57
2022-11-12T19:48:42.277Z,11.77
2022-11-12T19:51:10.408Z,12.07
2022-11-12T19:53:44.633Z,12.07
2022-11-12T19:58:44.288Z,12.82
2022-11-12T20:01:14.158Z,13.80
2022-11-12T20:03:41.496Z,12.45
2022-11-12T20:06:10.964Z,12.40
2022-11-12T20:08:37.978Z,11.38
2022-11-12T20:11:05.405Z,10.90
2022-11-12T20:13:32.095Z,11.82
2022-11-12T20:15:59.350Z,11.30
2022-11-12T20:18:26.486Z,11.75
2022-11-12T20:20:56.172Z,11.88
2022-11-12T20:23:24.111Z,11.35
2022-11-12T20:25:52.390Z,11.52
2022-11-12T20:28:19.278Z,11.85
2022-11-12T20:30:45.990Z,12.05
2022-11-12T20:33:13.679Z,11.90
2022-11-12T20:35:40.405Z,12.05
2022-11-12T20:38:07.126Z,11.32
2022-11-12T20:40:33.786Z,11.05
2022-11-12T20:43:00.469Z,10.82
2022-11-12T20:45:27.217Z,10.73
2022-11-12T20:47:56.118Z,10.27
2022-11-12T20:50:23.448Z,9.88
2022-11-12T20:52:50.213Z,10.73
2022-11-12T20:55:16.972Z,10.30
2022-11-12T20:57:43.940Z,10.23
2022-11-12T21:00:13.935Z,10.15
2022-11-12T21:02:41.636Z,9.68
2022-11-12T21:05:08.668Z,9.63
2022-11-12T21:07:35.352Z,10.18
2022-11-12T21:10:02.358Z,10.10
2022-11-12T21:12:30.670Z,9.48
2022-11-12T21:14:57.366Z,9.93
2022-11-12T21:17:24.074Z,9.18
2022-11-12T21:19:50.806Z,9.85
2022-11-12T21:22:17.694Z,10.30
2022-11-12T21:24:44.390Z,10.13
2022-11-12T21:27:11.789Z,9.40
2022-11-12T21:29:38.577Z,10.60
2022-11-12T21:32:05.680Z,8.90
2022-11-12T21:34:32.501Z,8.23
2022-11-12T21:36:59.246Z,8.45
2022-11-12T21:39:25.877Z,8.13
2022-11-12T21:41:54.438Z,8.18
2022-11-12T21:44:21.428Z,8.88
2022-11-12T21:46:48.303Z,9.13
2022-11-12T21:49:15.029Z,8.95
2022-11-12T21:51:41.721Z,7.97
2022-11-12T21:54:15.024Z,9.63
2022-11-12T21:56:42.072Z,7.78
2022-11-12T21:59:08.728Z,8.45
2022-11-12T22:01:35.454Z,9.93
2022-11-12T22:04:07.070Z,9.13
2022-11-12T22:06:36.925Z,9.00
2022-11-12T22:09:04.386Z,8.40
2022-11-12T22:11:31.125Z,9.00
2022-11-12T22:13:57.853Z,8.57
2022-11-12T22:16:27.094Z,8.93
2022-11-12T22:18:55.478Z,8.55
2022-11-12T22:21:24.524Z,10.68
2022-11-12T22:23:51.749Z,8.80
2022-11-12T22:26:21.434Z,10.77
2022-11-12T22:28:49.001Z,11.00
2022-11-12T22:31:18.378Z,9.02
2022-11-12T22:33:45.106Z,9.55
2022-11-12T22:36:23.420Z,8.73
2022-11-12T22:38:51.801Z,8.80
2022-11-12T22:41:36.870Z,8.57
2022-11-12T22:44:03.630Z,8.35
2022-11-12T22:46:33.587Z,7.95
2022-11-12T22:49:00.683Z,8.02
2022-11-12T22:51:31.274Z,8.90
2022-11-12T22:54:04.508Z,8.27
2022-11-12T22:56:34.057Z,8.23
2022-11-12T22:59:03.518Z,8.50
2022-11-12T23:01:32.895Z,8.50
2022-11-12T23:04:01.371Z,8.52
2022-11-12T23:06:29.763Z,8.45
2022-11-12T23:08:57.637Z,8.30
2022-11-12T23:11:27.662Z,8.30
2022-11-12T23:13:55.395Z,8.40
2022-11-12T23:16:26.348Z,7.60
2022-11-12T23:18:54.848Z,8.48
2022-11-12T23:21:24.170Z,8.23
2022-11-12T23:23:51.391Z,8.10
2022-11-12T23:26:21.689Z,8.70
2022-11-12T23:28:48.579Z,7.60
2022-11-12T23:31:27.320Z,8.18
2022-11-12T23:33:56.259Z,8.18
2022-11-12T23:36:24.443Z,8.70
2022-11-12T23:38:52.081Z,8.27
2022-11-12T23:41:22.844Z,8.68
2022-11-12T23:43:50.221Z,8.70
2022-11-12T23:46:17.093Z,8.60
2022-11-12T23:48:43.981Z,9.93
2022-11-12T23:51:17.316Z,9.40
2022-11-12T23:53:44.460Z,8.52
2022-11-12T23:56:13.277Z,8.63
2022-11-12T23:58:41.064Z,9.43
